sensor_id;sensor_type;location;lat;lon;timestamp;P1;durP1;ratioP1;P2;durP2;ratioP2
43817;SDS011;29868;47.360;18.984;2023-12-22T12:45:38;3.38;;;1.35;;
43817;SDS011;29868;47.360;18.984;2023-12-22T12:48:05;5.30;;;1.80;;
43817;SDS011;29868;47.360;18.984;2023-12-22T12:50:31;2.72;;;1.38;;
43817;SDS011;29868;47.360;18.984;2023-12-22T12:52:56;2.80;;;1.23;;
43817;SDS011;29868;47.360;18.984;2023-12-22T12:55:22;3.08;;;1.20;;
43817;SDS011;29868;47.360;18.984;2023-12-22T12:57:52;2.25;;;1.10;;
43817;SDS011;29868;47.360;18.984;2023-12-22T13:00:25;3.25;;;1.30;;
43817;SDS011;29868;47.360;18.984;2023-12-22T13:02:55;4.88;;;1.77;;
43817;SDS011;29868;47.360;18.984;2023-12-22T13:05:28;1.95;;;1.20;;
43817;SDS011;29868;47.360;18.984;2023-12-22T13:08:02;5.60;;;2.85;;
43817;SDS011;29868;47.360;18.984;2023-12-22T13:10:32;3.53;;;1.38;;
43817;SDS011;29868;47.360;18.984;2023-12-22T13:12:57;1.45;;;0.90;;
43817;SDS011;29868;47.360;18.984;2023-12-22T13:15:23;1.73;;;1.00;;
43817;SDS011;29868;47.360;18.984;2023-12-22T13:17:48;2.38;;;1.00;;
43817;SDS011;29868;47.360;18.984;2023-12-22T13:20:13;1.17;;;0.90;;
43817;SDS011;29868;47.360;18.984;2023-12-22T13:22:39;1.60;;;1.08;;
43817;SDS011;29868;47.360;18.984;2023-12-22T13:25:05;2.97;;;1.27;;
43817;SDS011;29868;47.360;18.984;2023-12-22T13:27:43;1.10;;;0.88;;
43817;SDS011;29868;47.360;18.984;2023-12-22T13:33:03;3.50;;;1.45;;
43817;SDS011;29868;47.360;18.984;2023-12-22T13:35:29;2.80;;;1.30;;
43817;SDS011;29868;47.360;18.984;2023-12-22T13:37:55;1.83;;;1.23;;
43817;SDS011;29868;47.360;18.984;2023-12-22T13:40:20;3.40;;;1.60;;
43817;SDS011;29868;47.360;18.984;2023-12-22T13:42:58;3.58;;;1.50;;
43817;SDS011;29868;47.360;18.984;2023-12-22T13:45:26;6.43;;;3.38;;
43817;SDS011;29868;47.360;18.984;2023-12-22T13:47:52;1.80;;;0.98;;
43817;SDS011;29868;47.360;18.984;2023-12-22T13:50:18;2.80;;;1.73;;
43817;SDS011;29868;47.360;18.984;2023-12-22T13:52:44;2.78;;;1.23;;
43817;SDS011;29868;47.360;18.984;2023-12-22T13:55:13;1.45;;;0.70;;
43817;SDS011;29868;47.360;18.984;2023-12-22T13:57:40;2.95;;;1.10;;
43817;SDS011;29868;47.360;18.984;2023-12-22T14:02:44;3.65;;;1.50;;
43817;SDS011;29868;47.360;18.984;2023-12-22T14:05:10;2.30;;;1.27;;
43817;SDS011;29868;47.360;18.984;2023-12-22T14:07:36;4.68;;;1.75;;
43817;SDS011;29868;47.360;18.984;2023-12-22T14:10:05;2.97;;;1.38;;
43817;SDS011;29868;47.360;18.984;2023-12-22T14:12:31;3.08;;;1.30;;
43817;SDS011;29868;47.360;18.984;2023-12-22T14:14:56;2.55;;;1.27;;
43817;SDS011;29868;47.360;18.984;2023-12-22T14:17:21;1.83;;;0.95;;
43817;SDS011;29868;47.360;18.984;2023-12-22T14:19:47;4.20;;;1.40;;
43817;SDS011;29868;47.360;18.984;2023-12-22T14:22:14;4.53;;;1.65;;
43817;SDS011;29868;47.360;18.984;2023-12-22T14:24:40;2.42;;;1.20;;
43817;SDS011;29868;47.360;18.984;2023-12-22T14:27:05;2.72;;;1.55;;
43817;SDS011;29868;47.360;18.984;2023-12-22T14:29:30;2.80;;;1.50;;
43817;SDS011;29868;47.360;18.984;2023-12-22T14:31:56;1.42;;;1.20;;
43817;SDS011;29868;47.360;18.984;2023-12-22T14:34:21;2.53;;;1.40;;
43817;SDS011;29868;47.360;18.984;2023-12-22T14:36:47;5.10;;;2.33;;
43817;SDS011;29868;47.360;18.984;2023-12-22T14:39:12;6.28;;;2.80;;
43817;SDS011;29868;47.360;18.984;2023-12-22T14:41:41;3.70;;;1.90;;
43817;SDS011;29868;47.360;18.984;2023-12-22T14:44:11;5.00;;;2.70;;
43817;SDS011;29868;47.360;18.984;2023-12-22T14:46:37;6.25;;;2.90;;
43817;SDS011;29868;47.360;18.984;2023-12-22T14:49:04;3.58;;;2.10;;
43817;SDS011;29868;47.360;18.984;2023-12-22T14:51:34;6.30;;;3.40;;
43817;SDS011;29868;47.360;18.984;2023-12-22T14:54:00;4.07;;;2.15;;
43817;SDS011;29868;47.360;18.984;2023-12-22T14:56:25;5.13;;;2.85;;
43817;SDS011;29868;47.360;18.984;2023-12-22T14:58:51;4.75;;;2.35;;
43817;SDS011;29868;47.360;18.984;2023-12-22T15:01:16;10.63;;;3.70;;
43817;SDS011;29868;47.360;18.984;2023-12-22T15:03:41;5.68;;;3.28;;
43817;SDS011;29868;47.360;18.984;2023-12-22T15:06:07;5.90;;;2.80;;
43817;SDS011;29868;47.360;18.984;2023-12-22T15:08:32;4.88;;;2.60;;
43817;SDS011;29868;47.360;18.984;2023-12-22T15:10:58;3.63;;;1.90;;
43817;SDS011;29868;47.360;18.984;2023-12-22T15:13:23;4.65;;;2.40;;
43817;SDS011;29868;47.360;18.984;2023-12-22T15:15:49;5.50;;;2.33;;
43817;SDS011;29868;47.360;18.984;2023-12-22T15:18:14;5.45;;;2.40;;
43817;SDS011;29868;47.360;18.984;2023-12-22T15:20:39;4.50;;;2.20;;
43817;SDS011;29868;47.360;18.984;2023-12-22T15:23:05;5.45;;;2.70;;
43817;SDS011;29868;47.360;18.984;2023-12-22T15:25:30;5.38;;;2.60;;
43817;SDS011;29868;47.360;18.984;2023-12-22T15:27:56;4.60;;;2.10;;
43817;SDS011;29868;47.360;18.984;2023-12-22T15:30:21;5.68;;;2.55;;
43817;SDS011;29868;47.360;18.984;2023-12-22T15:32:47;5.63;;;2.75;;
43817;SDS011;29868;47.360;18.984;2023-12-22T15:35:12;5.10;;;1.92;;
43817;SDS011;29868;47.360;18.984;2023-12-22T15:37:38;5.05;;;2.42;;
43817;SDS011;29868;47.360;18.984;2023-12-22T15:40:06;5.47;;;2.60;;
43817;SDS011;29868;47.360;18.984;2023-12-22T15:42:33;5.25;;;2.33;;
43817;SDS011;29868;47.360;18.984;2023-12-22T15:44:59;3.58;;;1.75;;
43817;SDS011;29868;47.360;18.984;2023-12-22T15:47:24;4.45;;;1.98;;
43817;SDS011;29868;47.360;18.984;2023-12-22T15:49:49;3.97;;;2.20;;
43817;SDS011;29868;47.360;18.984;2023-12-22T15:52:15;3.67;;;2.00;;
43817;SDS011;29868;47.360;18.984;2023-12-22T15:54:40;4.13;;;2.13;;
43817;SDS011;29868;47.360;18.984;2023-12-22T15:57:06;4.35;;;1.92;;
43817;SDS011;29868;47.360;18.984;2023-12-22T15:59:31;3.35;;;1.67;;
43817;SDS011;29868;47.360;18.984;2023-12-22T16:01:57;4.25;;;1.92;;
43817;SDS011;29868;47.360;18.984;2023-12-22T16:04:23;5.13;;;2.40;;
43817;SDS011;29868;47.360;18.984;2023-12-22T16:06:48;5.63;;;2.72;;
43817;SDS011;29868;47.360;18.984;2023-12-22T16:09:13;5.50;;;2.58;;
43817;SDS011;29868;47.360;18.984;2023-12-22T16:11:39;5.32;;;2.47;;
43817;SDS011;29868;47.360;18.984;2023-12-22T16:14:04;8.43;;;3.92;;
43817;SDS011;29868;47.360;18.984;2023-12-22T16:16:30;9.85;;;4.70;;
43817;SDS011;29868;47.360;18.984;2023-12-22T16:18:55;7.03;;;3.65;;
43817;SDS011;29868;47.360;18.984;2023-12-22T16:21:20;7.03;;;3.53;;
43817;SDS011;29868;47.360;18.984;2023-12-22T16:23:46;10.68;;;4.28;;
43817;SDS011;29868;47.360;18.984;2023-12-22T16:26:12;6.75;;;3.40;;
43817;SDS011;29868;47.360;18.984;2023-12-22T16:28:37;13.63;;;7.07;;
43817;SDS011;29868;47.360;18.984;2023-12-22T16:31:03;9.82;;;5.30;;
43817;SDS011;29868;47.360;18.984;2023-12-22T16:33:28;9.25;;;5.28;;
43817;SDS011;29868;47.360;18.984;2023-12-22T16:35:54;6.22;;;3.20;;
43817;SDS011;29868;47.360;18.984;2023-12-22T16:38:19;5.30;;;3.03;;
43817;SDS011;29868;47.360;18.984;2023-12-22T16:40:45;5.65;;;3.13;;
43817;SDS011;29868;47.360;18.984;2023-12-22T16:43:11;6.50;;;3.95;;
43817;SDS011;29868;47.360;18.984;2023-12-22T16:45:37;5.80;;;3.40;;
43817;SDS011;29868;47.360;18.984;2023-12-22T16:48:03;9.82;;;5.18;;
43817;SDS011;29868;47.360;18.984;2023-12-22T16:50:28;15.68;;;8.00;;
43817;SDS011;29868;47.360;18.984;2023-12-22T16:52:54;11.52;;;5.70;;
43817;SDS011;29868;47.360;18.984;2023-12-22T16:55:20;8.10;;;3.72;;
43817;SDS011;29868;47.360;18.984;2023-12-22T16:57:45;4.50;;;2.20;;
43817;SDS011;29868;47.360;18.984;2023-12-22T17:00:11;5.60;;;2.38;;
43817;SDS011;29868;47.360;18.984;2023-12-22T17:02:40;6.50;;;3.47;;
43817;SDS011;29868;47.360;18.984;2023-12-22T17:05:06;7.40;;;3.97;;
43817;SDS011;29868;47.360;18.984;2023-12-22T17:07:31;6.45;;;3.60;;
43817;SDS011;29868;47.360;18.984;2023-12-22T17:09:57;6.45;;;3.78;;
43817;SDS011;29868;47.360;18.984;2023-12-22T17:12:22;7.25;;;4.20;;
43817;SDS011;29868;47.360;18.984;2023-12-22T17:14:48;8.60;;;5.10;;
43817;SDS011;29868;47.360;18.984;2023-12-22T17:17:13;5.57;;;3.40;;
43817;SDS011;29868;47.360;18.984;2023-12-22T17:19:40;10.35;;;5.32;;
43817;SDS011;29868;47.360;18.984;2023-12-22T17:22:05;11.80;;;5.80;;
43817;SDS011;29868;47.360;18.984;2023-12-22T17:24:32;8.05;;;3.72;;
43817;SDS011;29868;47.360;18.984;2023-12-22T17:26:57;7.13;;;4.05;;
43817;SDS011;29868;47.360;18.984;2023-12-22T17:29:23;8.57;;;3.15;;
43817;SDS011;29868;47.360;18.984;2023-12-22T17:31:49;6.15;;;3.65;;
43817;SDS011;29868;47.360;18.984;2023-12-22T17:34:17;10.98;;;6.63;;
43817;SDS011;29868;47.360;18.984;2023-12-22T17:36:42;10.00;;;5.82;;
43817;SDS011;29868;47.360;18.984;2023-12-22T17:39:08;9.75;;;4.50;;
43817;SDS011;29868;47.360;18.984;2023-12-22T17:41:33;6.30;;;2.75;;
43817;SDS011;29868;47.360;18.984;2023-12-22T17:43:58;5.32;;;2.35;;
43817;SDS011;29868;47.360;18.984;2023-12-22T17:46:24;7.63;;;3.13;;
43817;SDS011;29868;47.360;18.984;2023-12-22T17:48:49;6.03;;;2.80;;
43817;SDS011;29868;47.360;18.984;2023-12-22T17:51:15;11.80;;;4.68;;
43817;SDS011;29868;47.360;18.984;2023-12-22T17:53:40;12.77;;;5.90;;
43817;SDS011;29868;47.360;18.984;2023-12-22T17:56:07;14.52;;;6.85;;
43817;SDS011;29868;47.360;18.984;2023-12-22T17:58:33;17.85;;;9.10;;
43817;SDS011;29868;47.360;18.984;2023-12-22T18:00:58;7.90;;;4.22;;
43817;SDS011;29868;47.360;18.984;2023-12-22T18:03:25;5.03;;;2.70;;
43817;SDS011;29868;47.360;18.984;2023-12-22T18:05:50;7.43;;;2.92;;
43817;SDS011;29868;47.360;18.984;2023-12-22T18:08:16;5.95;;;2.75;;
43817;SDS011;29868;47.360;18.984;2023-12-22T18:10:41;6.18;;;2.85;;
43817;SDS011;29868;47.360;18.984;2023-12-22T18:13:07;4.75;;;2.25;;
43817;SDS011;29868;47.360;18.984;2023-12-22T18:15:32;5.25;;;1.92;;
43817;SDS011;29868;47.360;18.984;2023-12-22T18:17:58;5.47;;;2.50;;
43817;SDS011;29868;47.360;18.984;2023-12-22T18:20:23;3.67;;;1.40;;
43817;SDS011;29868;47.360;18.984;2023-12-22T18:22:49;3.47;;;1.73;;
43817;SDS011;29868;47.360;18.984;2023-12-22T18:25:15;5.13;;;2.10;;
43817;SDS011;29868;47.360;18.984;2023-12-22T18:27:40;3.70;;;1.73;;
43817;SDS011;29868;47.360;18.984;2023-12-22T18:30:06;4.05;;;1.67;;
43817;SDS011;29868;47.360;18.984;2023-12-22T18:32:31;5.80;;;1.95;;
43817;SDS011;29868;47.360;18.984;2023-12-22T18:34:59;3.20;;;1.50;;
43817;SDS011;29868;47.360;18.984;2023-12-22T18:37:25;3.33;;;1.50;;
43817;SDS011;29868;47.360;18.984;2023-12-22T18:39:50;4.85;;;2.00;;
43817;SDS011;29868;47.360;18.984;2023-12-22T18:42:16;4.78;;;2.03;;
43817;SDS011;29868;47.360;18.984;2023-12-22T18:44:41;5.30;;;2.35;;
43817;SDS011;29868;47.360;18.984;2023-12-22T18:47:06;9.05;;;4.32;;
43817;SDS011;29868;47.360;18.984;2023-12-22T18:49:32;6.55;;;3.90;;
43817;SDS011;29868;47.360;18.984;2023-12-22T18:51:57;14.13;;;6.18;;
43817;SDS011;29868;47.360;18.984;2023-12-22T18:54:23;16.30;;;8.00;;
43817;SDS011;29868;47.360;18.984;2023-12-22T18:56:49;6.47;;;3.45;;
43817;SDS011;29868;47.360;18.984;2023-12-22T18:59:15;6.35;;;3.60;;
43817;SDS011;29868;47.360;18.984;2023-12-22T19:01:40;6.60;;;3.10;;
43817;SDS011;29868;47.360;18.984;2023-12-22T19:04:06;5.45;;;2.70;;
43817;SDS011;29868;47.360;18.984;2023-12-22T19:06:32;7.60;;;4.72;;
43817;SDS011;29868;47.360;18.984;2023-12-22T19:08:57;7.85;;;4.80;;
43817;SDS011;29868;47.360;18.984;2023-12-22T19:11:23;5.57;;;3.38;;
43817;SDS011;29868;47.360;18.984;2023-12-22T19:13:48;4.57;;;2.53;;
43817;SDS011;29868;47.360;18.984;2023-12-22T19:16:13;3.40;;;2.17;;
43817;SDS011;29868;47.360;18.984;2023-12-22T19:18:39;4.40;;;2.30;;
43817;SDS011;29868;47.360;18.984;2023-12-22T19:21:04;4.10;;;1.90;;
43817;SDS011;29868;47.360;18.984;2023-12-22T19:23:30;3.03;;;1.92;;
43817;SDS011;29868;47.360;18.984;2023-12-22T19:25:55;6.22;;;2.90;;
43817;SDS011;29868;47.360;18.984;2023-12-22T19:28:20;5.00;;;2.08;;
43817;SDS011;29868;47.360;18.984;2023-12-22T19:30:49;2.72;;;1.70;;
43817;SDS011;29868;47.360;18.984;2023-12-22T19:33:17;3.83;;;1.80;;
43817;SDS011;29868;47.360;18.984;2023-12-22T19:35:43;6.85;;;2.97;;
43817;SDS011;29868;47.360;18.984;2023-12-22T19:38:09;5.72;;;2.90;;
43817;SDS011;29868;47.360;18.984;2023-12-22T19:40:35;5.30;;;2.85;;
43817;SDS011;29868;47.360;18.984;2023-12-22T19:43:00;4.97;;;2.50;;
43817;SDS011;29868;47.360;18.984;2023-12-22T19:45:26;4.30;;;2.50;;
43817;SDS011;29868;47.360;18.984;2023-12-22T19:47:52;3.33;;;1.40;;
43817;SDS011;29868;47.360;18.984;2023-12-22T19:50:18;4.32;;;2.13;;
43817;SDS011;29868;47.360;18.984;2023-12-22T19:52:44;2.85;;;1.30;;
43817;SDS011;29868;47.360;18.984;2023-12-22T19:55:09;2.78;;;1.30;;
43817;SDS011;29868;47.360;18.984;2023-12-22T19:57:35;2.30;;;1.20;;
43817;SDS011;29868;47.360;18.984;2023-12-22T20:00:00;1.52;;;1.10;;
43817;SDS011;29868;47.360;18.984;2023-12-22T20:02:25;1.98;;;1.08;;
43817;SDS011;29868;47.360;18.984;2023-12-22T20:04:51;2.80;;;1.70;;
43817;SDS011;29868;47.360;18.984;2023-12-22T20:07:17;3.17;;;1.77;;
43817;SDS011;29868;47.360;18.984;2023-12-22T20:09:43;3.80;;;1.80;;
43817;SDS011;29868;47.360;18.984;2023-12-22T20:12:09;3.75;;;2.00;;
43817;SDS011;29868;47.360;18.984;2023-12-22T20:14:34;3.28;;;1.70;;
43817;SDS011;29868;47.360;18.984;2023-12-22T20:17:03;5.13;;;2.00;;
43817;SDS011;29868;47.360;18.984;2023-12-22T20:19:30;4.03;;;1.70;;
43817;SDS011;29868;47.360;18.984;2023-12-22T20:21:56;2.95;;;1.88;;
43817;SDS011;29868;47.360;18.984;2023-12-22T20:24:21;4.93;;;1.98;;
43817;SDS011;29868;47.360;18.984;2023-12-22T20:26:47;2.75;;;1.50;;
43817;SDS011;29868;47.360;18.984;2023-12-22T20:29:13;4.20;;;1.83;;
43817;SDS011;29868;47.360;18.984;2023-12-22T20:31:38;3.72;;;1.92;;
43817;SDS011;29868;47.360;18.984;2023-12-22T20:34:05;3.05;;;1.67;;
43817;SDS011;29868;47.360;18.984;2023-12-22T20:36:30;5.07;;;2.67;;
43817;SDS011;29868;47.360;18.984;2023-12-22T20:38:56;9.38;;;4.68;;
43817;SDS011;29868;47.360;18.984;2023-12-22T20:41:21;7.07;;;3.17;;
43817;SDS011;29868;47.360;18.984;2023-12-22T20:43:46;4.18;;;2.10;;
43817;SDS011;29868;47.360;18.984;2023-12-22T20:46:12;3.67;;;2.20;;
43817;SDS011;29868;47.360;18.984;2023-12-22T20:48:37;3.58;;;1.90;;
43817;SDS011;29868;47.360;18.984;2023-12-22T20:51:03;4.75;;;2.28;;
43817;SDS011;29868;47.360;18.984;2023-12-22T20:53:29;5.75;;;3.22;;
43817;SDS011;29868;47.360;18.984;2023-12-22T20:55:55;5.13;;;2.35;;
43817;SDS011;29868;47.360;18.984;2023-12-22T20:58:21;5.43;;;2.67;;
43817;SDS011;29868;47.360;18.984;2023-12-22T21:00:47;4.13;;;1.77;;
43817;SDS011;29868;47.360;18.984;2023-12-22T21:03:12;4.18;;;2.05;;
43817;SDS011;29868;47.360;18.984;2023-12-22T21:05:38;4.22;;;2.35;;
43817;SDS011;29868;47.360;18.984;2023-12-22T21:08:03;3.13;;;1.70;;
43817;SDS011;29868;47.360;18.984;2023-12-22T21:10:29;2.85;;;1.70;;
43817;SDS011;29868;47.360;18.984;2023-12-22T21:12:58;3.50;;;1.77;;
43817;SDS011;29868;47.360;18.984;2023-12-22T21:15:24;3.83;;;1.85;;
43817;SDS011;29868;47.360;18.984;2023-12-22T21:17:49;4.18;;;2.03;;
43817;SDS011;29868;47.360;18.984;2023-12-22T21:20:15;5.38;;;2.10;;
43817;SDS011;29868;47.360;18.984;2023-12-22T21:22:40;4.20;;;1.70;;
43817;SDS011;29868;47.360;18.984;2023-12-22T21:25:07;5.25;;;1.95;;
43817;SDS011;29868;47.360;18.984;2023-12-22T21:27:33;3.58;;;1.60;;
43817;SDS011;29868;47.360;18.984;2023-12-22T21:29:59;5.97;;;1.92;;
43817;SDS011;29868;47.360;18.984;2023-12-22T21:32:24;2.60;;;1.52;;
43817;SDS011;29868;47.360;18.984;2023-12-22T21:34:52;1.67;;;1.02;;
43817;SDS011;29868;47.360;18.984;2023-12-22T21:37:18;2.33;;;1.10;;
43817;SDS011;29868;47.360;18.984;2023-12-22T21:39:45;2.65;;;1.20;;
43817;SDS011;29868;47.360;18.984;2023-12-22T21:42:11;1.30;;;0.90;;
43817;SDS011;29868;47.360;18.984;2023-12-22T21:44:40;3.20;;;1.27;;
43817;SDS011;29868;47.360;18.984;2023-12-22T21:47:09;2.35;;;0.98;;
43817;SDS011;29868;47.360;18.984;2023-12-22T21:49:35;1.98;;;1.00;;
43817;SDS011;29868;47.360;18.984;2023-12-22T21:52:02;2.15;;;1.15;;
43817;SDS011;29868;47.360;18.984;2023-12-22T21:54:29;1.52;;;0.90;;
43817;SDS011;29868;47.360;18.984;2023-12-22T21:56:55;1.77;;;0.95;;
43817;SDS011;29868;47.360;18.984;2023-12-22T21:59:23;1.48;;;0.88;;
43817;SDS011;29868;47.360;18.984;2023-12-22T22:01:48;1.40;;;0.90;;
43817;SDS011;29868;47.360;18.984;2023-12-22T22:04:15;1.98;;;1.10;;
43817;SDS011;29868;47.360;18.984;2023-12-22T22:06:41;1.13;;;0.85;;
43817;SDS011;29868;47.360;18.984;2023-12-22T22:09:09;1.73;;;1.10;;
43817;SDS011;29868;47.360;18.984;2023-12-22T22:11:36;1.08;;;0.85;;
43817;SDS011;29868;47.360;18.984;2023-12-22T22:14:01;1.55;;;1.00;;
43817;SDS011;29868;47.360;18.984;2023-12-22T22:16:27;1.17;;;0.60;;
43817;SDS011;29868;47.360;18.984;2023-12-22T22:18:53;2.05;;;0.85;;
43817;SDS011;29868;47.360;18.984;2023-12-22T22:21:19;1.17;;;0.85;;
43817;SDS011;29868;47.360;18.984;2023-12-22T22:23:44;0.80;;;0.77;;
43817;SDS011;29868;47.360;18.984;2023-12-22T22:26:10;0.90;;;0.80;;
43817;SDS011;29868;47.360;18.984;2023-12-22T22:28:36;2.22;;;1.00;;
43817;SDS011;29868;47.360;18.984;2023-12-22T22:31:01;1.73;;;0.98;;
43817;SDS011;29868;47.360;18.984;2023-12-22T22:33:27;1.70;;;1.05;;
43817;SDS011;29868;47.360;18.984;2023-12-22T22:35:53;2.80;;;1.10;;
43817;SDS011;29868;47.360;18.984;2023-12-22T22:38:18;3.58;;;1.80;;
43817;SDS011;29868;47.360;18.984;2023-12-22T22:40:43;1.52;;;1.00;;
43817;SDS011;29868;47.360;18.984;2023-12-22T22:43:09;1.75;;;1.08;;
43817;SDS011;29868;47.360;18.984;2023-12-22T22:45:34;1.58;;;1.00;;
43817;SDS011;29868;47.360;18.984;2023-12-22T22:48:00;1.75;;;0.93;;
43817;SDS011;29868;47.360;18.984;2023-12-22T22:50:26;1.85;;;1.38;;
43817;SDS011;29868;47.360;18.984;2023-12-22T22:52:52;2.13;;;1.13;;
43817;SDS011;29868;47.360;18.984;2023-12-22T22:55:17;1.10;;;1.00;;
43817;SDS011;29868;47.360;18.984;2023-12-22T22:57:42;1.20;;;1.00;;
43817;SDS011;29868;47.360;18.984;2023-12-22T23:00:08;1.05;;;0.95;;
43817;SDS011;29868;47.360;18.984;2023-12-22T23:02:37;1.50;;;1.00;;
43817;SDS011;29868;47.360;18.984;2023-12-22T23:05:02;0.80;;;0.80;;
43817;SDS011;29868;47.360;18.984;2023-12-22T23:07:28;2.00;;;1.08;;
43817;SDS011;29868;47.360;18.984;2023-12-22T23:09:53;1.23;;;1.05;;
43817;SDS011;29868;47.360;18.984;2023-12-22T23:12:22;1.70;;;1.10;;
43817;SDS011;29868;47.360;18.984;2023-12-22T23:14:47;2.05;;;1.27;;
43817;SDS011;29868;47.360;18.984;2023-12-22T23:17:13;3.38;;;1.15;;
43817;SDS011;29868;47.360;18.984;2023-12-22T23:19:38;1.73;;;1.35;;
43817;SDS011;29868;47.360;18.984;2023-12-22T23:22:06;0.75;;;0.75;;
43817;SDS011;29868;47.360;18.984;2023-12-22T23:24:32;1.35;;;0.77;;
43817;SDS011;29868;47.360;18.984;2023-12-22T23:26:57;0.77;;;0.77;;
43817;SDS011;29868;47.360;18.984;2023-12-22T23:29:23;0.93;;;0.93;;
43817;SDS011;29868;47.360;18.984;2023-12-22T23:31:48;1.02;;;0.90;;
43817;SDS011;29868;47.360;18.984;2023-12-22T23:34:14;1.25;;;0.98;;
43817;SDS011;29868;47.360;18.984;2023-12-22T23:36:41;1.20;;;0.80;;
43817;SDS011;29868;47.360;18.984;2023-12-22T23:39:07;1.05;;;0.82;;
43817;SDS011;29868;47.360;18.984;2023-12-22T23:41:33;1.00;;;0.90;;
43817;SDS011;29868;47.360;18.984;2023-12-22T23:43:59;0.80;;;0.80;;
43817;SDS011;29868;47.360;18.984;2023-12-22T23:46:24;0.98;;;0.90;;
43817;SDS011;29868;47.360;18.984;2023-12-22T23:48:50;0.75;;;0.75;;
43817;SDS011;29868;47.360;18.984;2023-12-22T23:51:15;0.65;;;0.65;;
43817;SDS011;29868;47.360;18.984;2023-12-22T23:53:40;0.80;;;0.80;;
43817;SDS011;29868;47.360;18.984;2023-12-22T23:56:06;1.10;;;1.00;;
43817;SDS011;29868;47.360;18.984;2023-12-22T23:58:31;0.90;;;0.90;;
